New Harbor, ME (Heathkit)

43° 52' 34"N, 69° 29' 40"W, Elevation 65 ft.
Eastern Time

Hourly observations for the last 72 hours

Date Time Temperature (°F) Humi-
dity

(%)
Wind
(mph)
Pressure Rain (in)
Air Dew 6 Hour 1 Hr 3 Hr 6 Hr Day
Alt
(in)
Sea
Level

(mb)
Max Min
21 18:00 23 -64 0 SW 4 G 9 30.20 1022.7 0.00
21 17:00 24 -64 0 SW 2 G 12 30.21 1023.1 0.00
21 16:00 25 -63 0 SSW 4 G 9 30.23 1023.7 0.00
21 15:00 25 -63 0 SSW 6 G 14 30.24 1024.1 0.00
21 14:00 26 -62 0 S 7 G 13 30.25 1024.4 0.00
21 13:00 27 -62 27 4 0 S 4 G 12 30.28 1025.4 0.00
21 12:00 25 -63 0 SSW 2 G 7 30.32 1026.8 0.00
21 11:00 20 -66 0 S 4 G 8 30.34 1027.5 0.00
21 10:00 15 -69 0 SW 3 G 7 30.36 1028.1 0.00
21 09:00 12 -71 0 SSW 5 G 10 30.37 1028.5 0.00
21 08:00 8 -74 0 SW 1 G 3 30.37 1028.5 0.00
21 07:00 4 -76 10 1 0 SSW 3 G 6 30.37 1028.5 0.00
21 06:00 3 -77 0 SE 1 G 2 30.37 1028.5 0.00
21 05:00 4 -76 0 S 3 G 4 30.37 1028.5 0.00
21 04:00 4 -76 0 SSW 1 G 6 30.37 1028.5 0.00
21 03:00 5 -76 0 S 1 G 3 30.36 1028.1 0.00
21 02:00 8 -74 0 ESE 2 G 4 30.35 1027.8 0.00
21 01:00 10 -73 19 9 0 SSW 2 G 6 30.33 1027.1 0.00
21 00:00 11 -72 0 S 6 G 12 30.32 1026.8 0.00
20 23:00 13 -71 0 S 7 G 16 30.32 1026.8 0.00
20 22:00 14 -70 0 S 5 G 15 30.32 1026.8 0.00
20 21:00 16 -69 0 SSW 6 G 12 30.32 1026.8 0.00
20 20:00 18 -67 0 S 3 G 14 30.30 1026.1 0.00
20 19:00 19 -67 27 19 0 S 2 G 11 30.29 1025.8 0.00
20 18:00 21 -66 0 SSW 6 G 10 30.27 1025.1 0.00
20 17:00 23 -64 0 S 4 G 9 30.23 1023.7 0.00
20 16:00 26 -62 0 SW 5 G 15 30.21 1023.1 0.00
20 15:00 25 -63 0 SW 5 G 15 30.20 1022.7 0.00
20 14:00 26 -62 0 SW 4 G 14 30.21 1023.1 0.00
20 13:00 26 -62 27 10 0 SW 9 G 16 30.23 1023.7 0.00
20 12:00 24 -64 0 S 4 G 9 30.25 1024.4 0.00
20 11:00 22 -7 27 SW 6 G 18 30.29 1025.8 0.00
20 10:00 19 -1 41 SW 5 G 15 30.31 1026.4 0.00
20 09:00 16 6 64 SW 5 G 13 30.31 1026.4 0.00
20 08:00 14 5 68 SW 4 G 9 30.32 1026.8 0.00
20 07:00 12 5 19 9 73 S 5 G 10 30.30 1026.1 0.00
20 06:00 13 7 75 SSW 3 G 10 30.28 1025.4 0.00
20 05:00 14 7 74 S 8 G 17 30.26 1024.8 0.00
20 04:00 15 9 77 SSW 8 G 18 30.24 1024.1 0.00
20 03:00 16 11 79 S 5 G 15 30.22 1023.4 0.00
20 02:00 17 12 81 S 7 G 15 30.21 1023.1 0.00
20 01:00 19 14 28 17 80 S 4 G 10 30.20 1022.7 0.00
20 00:00 20 14 77 S 7 G 15 30.18 1022.0 0.11
19 23:00 23 17 77 SSW 3 G 15 30.15 1021.0 0.11
19 22:00 24 18 76 SSW 7 G 19 30.13 1020.4 0.11
19 21:00 26 19 75 SSW 5 G 20 30.11 1019.7 0.11
19 20:00 27 20 73 SSW 7 G 15 30.08 1018.7 0.11
19 19:00 28 22 39 25 77 SSW 5 G 14 30.07 1018.3 0.01 0.11
19 18:00 29 22 76 SSW 7 G 14 30.05 1017.6 0.11
19 17:00 30 23 76 SSW 4 G 14 30.01 1016.3 0.11
19 16:00 33 26 74 SSW 11 G 25 29.96 1014.6 0.01 0.11
19 15:00 36 29 77 S 6 G 37 29.92 1013.2 0.11
19 14:00 37 30 77 SW 9 G 28 29.88 1011.9 0.01 0.11
19 13:00 39 35 41 30 86 SSW 10 G 28 29.86 1011.2 0.01 0.08 0.08 0.10
19 12:00 41 37 85 SW 8 G 15 29.84 1010.5 0.04 0.09
19 11:00 38 37 96 SW 7 G 16 29.84 1010.5 0.03 0.05
19 10:00 37 37 99 SW 6 G 14 29.83 1010.2 0.02
19 09:00 35 35 99 SW 4 G 10 29.83 1010.2 0.02
19 08:00 33 33 99 SW 3 G 8 29.84 1010.5 0.02
19 07:00 32 32 34 27 99 SW 6 G 19 29.82 1009.9 0.01 0.02
19 06:00 31 31 99 Calm 29.80 1009.2 0.02
19 05:00 31 31 99 Calm 29.78 1008.5 0.02
19 04:00 32 32 99 Calm 29.76 1007.8 0.01 0.02
19 03:00 32 32 99 Calm 29.73 1006.8 0.02
19 02:00 32 32 99 SW 4 G 7 29.72 1006.5 0.01 0.02
19 01:00 33 33 37 30 99 SSW 2 G 4 29.70 1005.8 0.01 0.09 0.37 0.01
19 00:00 36 36 99 SW 3 G 6 29.73 1006.8 0.02 0.49
18 23:00 37 37 99 ESE 2 G 6 29.74 1007.1 0.06 0.47
18 22:00 36 36 99 ESE 2 G 4 29.81 1009.5 0.13 0.28 0.41
18 21:00 36 36 99 ESE 4 G 7 29.88 1011.9 0.09 0.28
18 20:00 35 35 99 SE 5 G 10 29.94 1013.9 0.06 0.19
18 19:00 34 34 35 27 99 SE 8 G 12 30.00 1016.0 0.06 0.12 0.13 0.13

Data generated by WxSolution Version 1.9.1.8, Build 2020.02.16.